sensor_id;sensor_type;location;lat;lon;timestamp;pressure;altitude;pressure_sealevel;temperature;humidity
44441;BME280;30146;52.268;20.944;2023-08-24T00:00:47;100503.26;;;20.85;52.20
44441;BME280;30146;52.268;20.944;2023-08-24T00:03:19;100502.38;;;20.82;52.38
44441;BME280;30146;52.268;20.944;2023-08-24T00:05:52;100499.77;;;20.79;52.35
44441;BME280;30146;52.268;20.944;2023-08-24T00:08:23;100497.98;;;20.75;52.46
44441;BME280;30146;52.268;20.944;2023-08-24T00:10:54;100499.20;;;20.72;52.62
44441;BME280;30146;52.268;20.944;2023-08-24T00:13:25;100502.64;;;20.70;52.41
44441;BME280;30146;52.268;20.944;2023-08-24T00:15:57;100499.83;;;20.67;52.60
44441;BME280;30146;52.268;20.944;2023-08-24T00:18:28;100498.54;;;20.65;52.70
44441;BME280;30146;52.268;20.944;2023-08-24T00:20:59;100499.17;;;20.62;52.67
44441;BME280;30146;52.268;20.944;2023-08-24T00:23:32;100499.82;;;20.59;52.82
44441;BME280;30146;52.268;20.944;2023-08-24T00:26:03;100498.02;;;20.56;52.82
44441;BME280;30146;52.268;20.944;2023-08-24T00:28:34;100495.20;;;20.54;52.88
44441;BME280;30146;52.268;20.944;2023-08-24T00:31:05;100495.17;;;20.51;52.74
44441;BME280;30146;52.268;20.944;2023-08-24T00:33:37;100490.87;;;20.46;52.75
44441;BME280;30146;52.268;20.944;2023-08-24T00:36:10;100490.50;;;20.44;52.92
44441;BME280;30146;52.268;20.944;2023-08-24T00:38:41;100491.52;;;20.40;53.02
44441;BME280;30146;52.268;20.944;2023-08-24T00:44:21;100486.69;;;20.36;53.29
44441;BME280;30146;52.268;20.944;2023-08-24T00:46:53;100487.47;;;20.34;53.20
44441;BME280;30146;52.268;20.944;2023-08-24T00:49:25;100487.06;;;20.32;53.13
44441;BME280;30146;52.268;20.944;2023-08-24T00:51:56;100489.94;;;20.30;53.19
44441;BME280;30146;52.268;20.944;2023-08-24T00:54:28;100487.27;;;20.28;53.26
44441;BME280;30146;52.268;20.944;2023-08-24T00:56:59;100485.29;;;20.25;53.28
44441;BME280;30146;52.268;20.944;2023-08-24T00:59:30;100488.30;;;20.24;53.34
44441;BME280;30146;52.268;20.944;2023-08-24T01:02:02;100490.32;;;20.22;53.47
44441;BME280;30146;52.268;20.944;2023-08-24T01:04:33;100491.63;;;20.20;53.62
44441;BME280;30146;52.268;20.944;2023-08-24T01:07:04;100491.39;;;20.17;53.67
44441;BME280;30146;52.268;20.944;2023-08-24T01:09:36;100494.23;;;20.16;53.51
44441;BME280;30146;52.268;20.944;2023-08-24T01:12:14;100485.26;;;20.15;53.66
44441;BME280;30146;52.268;20.944;2023-08-24T01:14:54;100489.30;;;20.13;53.78
44441;BME280;30146;52.268;20.944;2023-08-24T01:17:31;100488.81;;;20.13;53.81
44441;BME280;30146;52.268;20.944;2023-08-24T01:20:04;100487.75;;;20.13;53.69
44441;BME280;30146;52.268;20.944;2023-08-24T01:22:41;100486.52;;;20.14;53.74
44441;BME280;30146;52.268;20.944;2023-08-24T01:25:21;100484.05;;;20.14;53.68
44441;BME280;30146;52.268;20.944;2023-08-24T01:27:56;100483.66;;;20.16;53.74
44441;BME280;30146;52.268;20.944;2023-08-24T01:30:28;100484.16;;;20.16;53.74
44441;BME280;30146;52.268;20.944;2023-08-24T01:33:00;100484.95;;;20.18;53.75
44441;BME280;30146;52.268;20.944;2023-08-24T01:35:33;100483.34;;;20.19;53.57
44441;BME280;30146;52.268;20.944;2023-08-24T01:38:04;100483.36;;;20.18;53.74
44441;BME280;30146;52.268;20.944;2023-08-24T01:40:43;100482.83;;;20.19;53.83
44441;BME280;30146;52.268;20.944;2023-08-24T01:43:16;100482.61;;;20.20;53.78
44441;BME280;30146;52.268;20.944;2023-08-24T01:46:06;100482.94;;;20.20;53.86
44441;BME280;30146;52.268;20.944;2023-08-24T01:48:39;100483.89;;;20.22;53.75
44441;BME280;30146;52.268;20.944;2023-08-24T01:51:12;100480.26;;;20.22;53.77
44441;BME280;30146;52.268;20.944;2023-08-24T01:53:44;100479.58;;;20.21;53.84
44441;BME280;30146;52.268;20.944;2023-08-24T01:56:16;100479.51;;;20.19;53.60
44441;BME280;30146;52.268;20.944;2023-08-24T01:58:48;100475.44;;;20.17;53.77
44441;BME280;30146;52.268;20.944;2023-08-24T02:01:19;100472.79;;;20.14;53.56
44441;BME280;30146;52.268;20.944;2023-08-24T02:03:50;100472.77;;;20.11;53.58
44441;BME280;30146;52.268;20.944;2023-08-24T02:06:21;100469.10;;;20.08;53.80
44441;BME280;30146;52.268;20.944;2023-08-24T02:08:52;100465.61;;;20.05;53.84
44441;BME280;30146;52.268;20.944;2023-08-24T02:11:24;100469.89;;;20.02;53.98
44441;BME280;30146;52.268;20.944;2023-08-24T02:13:55;100468.48;;;19.98;54.00
44441;BME280;30146;52.268;20.944;2023-08-24T02:16:26;100466.73;;;19.95;53.93
44441;BME280;30146;52.268;20.944;2023-08-24T02:18:57;100467.97;;;19.91;53.93
44441;BME280;30146;52.268;20.944;2023-08-24T02:21:28;100467.59;;;19.88;54.00
44441;BME280;30146;52.268;20.944;2023-08-24T02:24:01;100466.16;;;19.85;54.05
44441;BME280;30146;52.268;20.944;2023-08-24T02:26:33;100461.95;;;19.83;54.25
44441;BME280;30146;52.268;20.944;2023-08-24T02:29:04;100462.56;;;19.80;54.45
44441;BME280;30146;52.268;20.944;2023-08-24T02:31:35;100462.49;;;19.78;54.59
44441;BME280;30146;52.268;20.944;2023-08-24T02:34:06;100460.02;;;19.75;54.61
44441;BME280;30146;52.268;20.944;2023-08-24T02:36:37;100461.86;;;19.73;54.49
44441;BME280;30146;52.268;20.944;2023-08-24T02:39:09;100464.89;;;19.71;54.75
44441;BME280;30146;52.268;20.944;2023-08-24T02:41:40;100467.59;;;19.68;54.81
44441;BME280;30146;52.268;20.944;2023-08-24T02:44:11;100464.05;;;19.66;54.82
44441;BME280;30146;52.268;20.944;2023-08-24T02:46:45;100466.05;;;19.64;54.60
44441;BME280;30146;52.268;20.944;2023-08-24T02:49:16;100468.75;;;19.62;54.76
44441;BME280;30146;52.268;20.944;2023-08-24T02:51:47;100469.05;;;19.59;54.63
44441;BME280;30146;52.268;20.944;2023-08-24T02:54:18;100471.61;;;19.56;54.70
44441;BME280;30146;52.268;20.944;2023-08-24T02:56:51;100471.31;;;19.55;54.78
44441;BME280;30146;52.268;20.944;2023-08-24T02:59:22;100470.64;;;19.54;54.90
44441;BME280;30146;52.268;20.944;2023-08-24T03:01:53;100475.20;;;19.53;54.90
44441;BME280;30146;52.268;20.944;2023-08-24T03:04:24;100475.56;;;19.53;55.06
44441;BME280;30146;52.268;20.944;2023-08-24T03:06:55;100474.36;;;19.53;55.10
44441;BME280;30146;52.268;20.944;2023-08-24T03:09:26;100473.56;;;19.51;55.07
44441;BME280;30146;52.268;20.944;2023-08-24T03:11:57;100472.02;;;19.51;55.16
44441;BME280;30146;52.268;20.944;2023-08-24T03:14:28;100468.41;;;19.50;55.13
44441;BME280;30146;52.268;20.944;2023-08-24T03:16:59;100470.00;;;19.50;55.30
44441;BME280;30146;52.268;20.944;2023-08-24T03:19:32;100469.34;;;19.48;55.32
44441;BME280;30146;52.268;20.944;2023-08-24T03:22:03;100467.83;;;19.48;55.31
44441;BME280;30146;52.268;20.944;2023-08-24T03:24:34;100465.06;;;19.47;55.29
44441;BME280;30146;52.268;20.944;2023-08-24T03:27:06;100464.56;;;19.47;55.28
44441;BME280;30146;52.268;20.944;2023-08-24T03:29:37;100459.95;;;19.46;55.23
44441;BME280;30146;52.268;20.944;2023-08-24T03:32:08;100458.09;;;19.44;55.41
44441;BME280;30146;52.268;20.944;2023-08-24T03:34:40;100452.57;;;19.44;55.41
44441;BME280;30146;52.268;20.944;2023-08-24T03:37:12;100453.80;;;19.43;55.39
44441;BME280;30146;52.268;20.944;2023-08-24T03:39:45;100454.21;;;19.41;55.51
44441;BME280;30146;52.268;20.944;2023-08-24T03:42:16;100454.91;;;19.41;55.63
44441;BME280;30146;52.268;20.944;2023-08-24T03:44:47;100455.30;;;19.41;55.48
44441;BME280;30146;52.268;20.944;2023-08-24T03:47:19;100454.98;;;19.40;55.59
44441;BME280;30146;52.268;20.944;2023-08-24T03:49:52;100452.70;;;19.40;55.55
44441;BME280;30146;52.268;20.944;2023-08-24T03:52:23;100453.59;;;19.40;55.58
44441;BME280;30146;52.268;20.944;2023-08-24T03:54:55;100455.98;;;19.41;55.61
44441;BME280;30146;52.268;20.944;2023-08-24T03:57:26;100454.58;;;19.41;55.67
44441;BME280;30146;52.268;20.944;2023-08-24T03:59:58;100457.31;;;19.42;55.73
44441;BME280;30146;52.268;20.944;2023-08-24T04:02:29;100461.73;;;19.44;55.54
44441;BME280;30146;52.268;20.944;2023-08-24T04:05:00;100465.88;;;19.45;55.73
44441;BME280;30146;52.268;20.944;2023-08-24T04:07:31;100468.05;;;19.47;55.83
44441;BME280;30146;52.268;20.944;2023-08-24T04:10:03;100472.61;;;19.49;55.90
44441;BME280;30146;52.268;20.944;2023-08-24T04:12:35;100468.27;;;19.53;56.01
44441;BME280;30146;52.268;20.944;2023-08-24T04:15:08;100473.20;;;19.59;56.06
44441;BME280;30146;52.268;20.944;2023-08-24T04:17:39;100471.63;;;19.67;56.04
44441;BME280;30146;52.268;20.944;2023-08-24T04:20:14;100473.52;;;19.91;56.44
44441;BME280;30146;52.268;20.944;2023-08-24T04:22:45;100478.33;;;20.22;56.50
44441;BME280;30146;52.268;20.944;2023-08-24T04:25:17;100477.04;;;20.56;56.23
44441;BME280;30146;52.268;20.944;2023-08-24T04:27:50;100474.53;;;20.93;55.82
44441;BME280;30146;52.268;20.944;2023-08-24T04:30:22;100475.58;;;21.34;55.39
44441;BME280;30146;52.268;20.944;2023-08-24T04:32:54;100468.76;;;21.75;55.04
44441;BME280;30146;52.268;20.944;2023-08-24T04:35:28;100464.89;;;22.17;54.31
44441;BME280;30146;52.268;20.944;2023-08-24T04:38:00;100460.98;;;22.62;53.76
44441;BME280;30146;52.268;20.944;2023-08-24T04:40:38;100459.89;;;23.10;53.37
44441;BME280;30146;52.268;20.944;2023-08-24T04:43:14;100463.90;;;23.65;52.86
44441;BME280;30146;52.268;20.944;2023-08-24T04:45:47;100463.60;;;24.14;52.43
44441;BME280;30146;52.268;20.944;2023-08-24T04:48:24;100466.19;;;24.64;51.96
44441;BME280;30146;52.268;20.944;2023-08-24T04:50:55;100469.80;;;25.06;50.65
44441;BME280;30146;52.268;20.944;2023-08-24T04:53:27;100467.73;;;25.42;50.23
44441;BME280;30146;52.268;20.944;2023-08-24T04:55:59;100466.65;;;25.77;49.16
44441;BME280;30146;52.268;20.944;2023-08-24T04:58:32;100466.63;;;26.12;48.11
44441;BME280;30146;52.268;20.944;2023-08-24T05:01:05;100466.67;;;26.47;47.51
44441;BME280;30146;52.268;20.944;2023-08-24T05:03:36;100467.51;;;26.84;46.81
44441;BME280;30146;52.268;20.944;2023-08-24T05:06:07;100467.83;;;27.25;46.36
44441;BME280;30146;52.268;20.944;2023-08-24T05:08:39;100468.73;;;27.70;45.88
44441;BME280;30146;52.268;20.944;2023-08-24T05:11:13;100468.81;;;28.15;45.20
44441;BME280;30146;52.268;20.944;2023-08-24T05:13:45;100470.21;;;28.63;44.58
44441;BME280;30146;52.268;20.944;2023-08-24T05:16:17;100471.33;;;29.11;44.25
44441;BME280;30146;52.268;20.944;2023-08-24T05:18:48;100472.83;;;29.61;43.86
44441;BME280;30146;52.268;20.944;2023-08-24T05:21:20;100475.53;;;30.08;43.25
44441;BME280;30146;52.268;20.944;2023-08-24T05:23:51;100475.18;;;30.57;42.64
44441;BME280;30146;52.268;20.944;2023-08-24T05:26:23;100474.98;;;31.07;42.26
44441;BME280;30146;52.268;20.944;2023-08-24T05:28:59;100478.46;;;31.60;41.84
44441;BME280;30146;52.268;20.944;2023-08-24T05:31:31;100477.77;;;32.09;40.82
44441;BME280;30146;52.268;20.944;2023-08-24T05:34:03;100475.71;;;32.55;40.17
44441;BME280;30146;52.268;20.944;2023-08-24T05:36:39;100481.95;;;33.06;39.74
44441;BME280;30146;52.268;20.944;2023-08-24T05:39:11;100484.28;;;33.57;39.38
44441;BME280;30146;52.268;20.944;2023-08-24T05:41:42;100479.14;;;34.08;38.63
44441;BME280;30146;52.268;20.944;2023-08-24T05:44:13;100477.48;;;34.50;37.80
44441;BME280;30146;52.268;20.944;2023-08-24T05:46:47;100480.65;;;34.96;37.43
44441;BME280;30146;52.268;20.944;2023-08-24T05:49:19;100486.11;;;35.42;36.75
44441;BME280;30146;52.268;20.944;2023-08-24T05:51:52;100487.48;;;35.81;36.04
44441;BME280;30146;52.268;20.944;2023-08-24T05:54:23;100488.23;;;36.19;35.58
44441;BME280;30146;52.268;20.944;2023-08-24T05:56:54;100489.86;;;36.54;34.84
44441;BME280;30146;52.268;20.944;2023-08-24T05:59:32;100491.80;;;36.86;34.31
44441;BME280;30146;52.268;20.944;2023-08-24T06:02:05;100489.35;;;37.19;33.72
44441;BME280;30146;52.268;20.944;2023-08-24T06:04:37;100491.00;;;37.57;33.64
44441;BME280;30146;52.268;20.944;2023-08-24T06:07:08;100491.55;;;37.92;32.91
44441;BME280;30146;52.268;20.944;2023-08-24T06:09:39;100488.32;;;38.22;32.86
44441;BME280;30146;52.268;20.944;2023-08-24T06:12:10;100484.83;;;38.56;32.32
44441;BME280;30146;52.268;20.944;2023-08-24T06:14:43;100484.88;;;38.88;31.64
44441;BME280;30146;52.268;20.944;2023-08-24T06:17:14;100483.01;;;39.18;31.37
44441;BME280;30146;52.268;20.944;2023-08-24T06:19:46;100484.94;;;39.53;31.09
44441;BME280;30146;52.268;20.944;2023-08-24T06:22:17;100482.52;;;39.83;30.70
44441;BME280;30146;52.268;20.944;2023-08-24T06:24:48;100482.40;;;40.17;30.52
44441;BME280;30146;52.268;20.944;2023-08-24T06:27:23;100484.77;;;40.51;30.21
44441;BME280;30146;52.268;20.944;2023-08-24T06:29:54;100482.23;;;40.79;29.49
44441;BME280;30146;52.268;20.944;2023-08-24T06:32:25;100482.09;;;41.00;28.82
44441;BME280;30146;52.268;20.944;2023-08-24T06:34:57;100479.98;;;41.15;28.41
44441;BME280;30146;52.268;20.944;2023-08-24T06:37:28;100480.83;;;41.33;28.20
44441;BME280;30146;52.268;20.944;2023-08-24T06:40:03;100481.48;;;41.51;27.82
44441;BME280;30146;52.268;20.944;2023-08-24T06:42:35;100481.23;;;41.72;27.33
44441;BME280;30146;52.268;20.944;2023-08-24T06:45:09;100477.36;;;41.87;26.79
44441;BME280;30146;52.268;20.944;2023-08-24T06:47:40;100478.44;;;42.00;26.66
44441;BME280;30146;52.268;20.944;2023-08-24T06:50:14;100482.05;;;42.13;26.30
44441;BME280;30146;52.268;20.944;2023-08-24T06:52:46;100484.65;;;42.18;26.09
44441;BME280;30146;52.268;20.944;2023-08-24T06:55:17;100482.40;;;42.25;25.91
44441;BME280;30146;52.268;20.944;2023-08-24T06:57:50;100484.00;;;42.37;25.87
44441;BME280;30146;52.268;20.944;2023-08-24T07:00:22;100483.98;;;42.54;25.47
44441;BME280;30146;52.268;20.944;2023-08-24T07:02:56;100480.39;;;42.69;25.31
44441;BME280;30146;52.268;20.944;2023-08-24T07:05:28;100480.33;;;42.79;25.07
44441;BME280;30146;52.268;20.944;2023-08-24T07:08:02;100481.88;;;42.95;25.08
44441;BME280;30146;52.268;20.944;2023-08-24T07:10:34;100480.64;;;43.12;24.85
44441;BME280;30146;52.268;20.944;2023-08-24T07:13:07;100485.89;;;43.32;24.85
44441;BME280;30146;52.268;20.944;2023-08-24T07:15:39;100487.20;;;43.48;24.33
44441;BME280;30146;52.268;20.944;2023-08-24T07:18:10;100486.86;;;43.55;23.79
44441;BME280;30146;52.268;20.944;2023-08-24T07:20:41;100487.96;;;43.62;24.15
44441;BME280;30146;52.268;20.944;2023-08-24T07:23:13;100488.20;;;43.73;23.95
44441;BME280;30146;52.268;20.944;2023-08-24T07:25:44;100494.70;;;43.86;23.66
44441;BME280;30146;52.268;20.944;2023-08-24T07:28:15;100493.97;;;43.93;23.05
44441;BME280;30146;52.268;20.944;2023-08-24T07:30:46;100492.80;;;43.96;23.12
44441;BME280;30146;52.268;20.944;2023-08-24T07:33:18;100494.79;;;44.08;23.11
44441;BME280;30146;52.268;20.944;2023-08-24T07:36:19;100491.77;;;44.00;22.88
44441;BME280;30146;52.268;20.944;2023-08-24T07:38:59;100489.64;;;43.67;22.83
44441;BME280;30146;52.268;20.944;2023-08-24T07:41:31;100488.69;;;43.57;22.82
44441;BME280;30146;52.268;20.944;2023-08-24T07:44:04;100484.20;;;43.53;22.93
44441;BME280;30146;52.268;20.944;2023-08-24T07:46:35;100483.79;;;43.43;22.95
44441;BME280;30146;52.268;20.944;2023-08-24T07:49:06;100485.89;;;43.30;23.35
44441;BME280;30146;52.268;20.944;2023-08-24T07:51:38;100484.70;;;43.04;23.60
44441;BME280;30146;52.268;20.944;2023-08-24T07:54:13;100488.17;;;42.46;23.38
44441;BME280;30146;52.268;20.944;2023-08-24T07:56:44;100487.97;;;41.92;23.53
44441;BME280;30146;52.268;20.944;2023-08-24T07:59:15;100484.61;;;41.45;24.07
44441;BME280;30146;52.268;20.944;2023-08-24T08:01:46;100483.66;;;41.00;24.17
44441;BME280;30146;52.268;20.944;2023-08-24T08:04:18;100482.95;;;40.55;24.42
44441;BME280;30146;52.268;20.944;2023-08-24T08:06:53;100482.16;;;40.10;24.74
44441;BME280;30146;52.268;20.944;2023-08-24T08:09:25;100481.39;;;39.78;25.35
44441;BME280;30146;52.268;20.944;2023-08-24T08:11:56;100480.80;;;39.51;25.55
44441;BME280;30146;52.268;20.944;2023-08-24T08:14:28;100478.91;;;39.26;25.79
44441;BME280;30146;52.268;20.944;2023-08-24T08:17:00;100477.03;;;39.03;25.90
44441;BME280;30146;52.268;20.944;2023-08-24T08:19:32;100477.98;;;38.83;26.24
44441;BME280;30146;52.268;20.944;2023-08-24T08:22:05;100476.16;;;38.64;26.44
44441;BME280;30146;52.268;20.944;2023-08-24T08:24:41;100474.23;;;38.46;26.68
44441;BME280;30146;52.268;20.944;2023-08-24T08:27:12;100472.61;;;38.25;26.51
44441;BME280;30146;52.268;20.944;2023-08-24T08:29:44;100480.52;;;37.92;26.63
44441;BME280;30146;52.268;20.944;2023-08-24T08:32:15;100479.65;;;37.58;26.67
44441;BME280;30146;52.268;20.944;2023-08-24T08:34:46;100476.23;;;37.18;26.55
44441;BME280;30146;52.268;20.944;2023-08-24T08:37:17;100476.74;;;36.84;27.04
44441;BME280;30146;52.268;20.944;2023-08-24T08:39:50;100475.15;;;36.49;26.86
44441;BME280;30146;52.268;20.944;2023-08-24T08:42:22;100476.95;;;36.11;27.29
44441;BME280;30146;52.268;20.944;2023-08-24T08:44:54;100474.86;;;35.71;27.71
44441;BME280;30146;52.268;20.944;2023-08-24T08:47:26;100476.36;;;35.33;27.95
44441;BME280;30146;52.268;20.944;2023-08-24T08:49:57;100476.58;;;34.99;28.34
44441;BME280;30146;52.268;20.944;2023-08-24T08:52:34;100476.69;;;34.69;28.63
44441;BME280;30146;52.268;20.944;2023-08-24T08:55:06;100474.17;;;34.41;28.67
44441;BME280;30146;52.268;20.944;2023-08-24T08:57:40;100473.92;;;34.12;29.08
44441;BME280;30146;52.268;20.944;2023-08-24T09:00:20;100475.02;;;33.93;29.53
44441;BME280;30146;52.268;20.944;2023-08-24T09:02:53;100471.95;;;33.84;29.76
44441;BME280;30146;52.268;20.944;2023-08-24T09:05:25;100476.55;;;33.75;29.88
44441;BME280;30146;52.268;20.944;2023-08-24T09:07:58;100474.02;;;33.74;30.20
44441;BME280;30146;52.268;20.944;2023-08-24T09:10:32;100473.27;;;33.76;30.32
44441;BME280;30146;52.268;20.944;2023-08-24T09:13:04;100472.16;;;33.71;30.13
44441;BME280;30146;52.268;20.944;2023-08-24T09:15:37;100471.31;;;33.71;30.42
44441;BME280;30146;52.268;20.944;2023-08-24T09:18:09;100470.00;;;33.70;30.67
44441;BME280;30146;52.268;20.944;2023-08-24T09:20:41;100465.67;;;33.74;31.20
44441;BME280;30146;52.268;20.944;2023-08-24T09:23:20;100465.75;;;33.75;30.89
44441;BME280;30146;52.268;20.944;2023-08-24T09:25:51;100468.90;;;33.79;30.73
44441;BME280;30146;52.268;20.944;2023-08-24T09:28:25;100460.75;;;33.84;30.89
44441;BME280;30146;52.268;20.944;2023-08-24T09:30:59;100462.77;;;33.84;30.89
44441;BME280;30146;52.268;20.944;2023-08-24T09:33:30;100459.54;;;33.76;30.33
44441;BME280;30146;52.268;20.944;2023-08-24T09:36:02;100455.38;;;33.61;30.13
44441;BME280;30146;52.268;20.944;2023-08-24T09:38:37;100456.44;;;33.42;30.24
44441;BME280;30146;52.268;20.944;2023-08-24T09:41:17;100458.42;;;33.23;30.36
44441;BME280;30146;52.268;20.944;2023-08-24T09:43:48;100460.60;;;33.03;30.26
44441;BME280;30146;52.268;20.944;2023-08-24T09:46:21;100457.85;;;32.82;30.54
44441;BME280;30146;52.268;20.944;2023-08-24T09:48:57;100459.73;;;32.61;31.05
44441;BME280;30146;52.268;20.944;2023-08-24T09:51:30;100457.96;;;32.43;31.44
44441;BME280;30146;52.268;20.944;2023-08-24T09:54:06;100457.67;;;32.29;31.60
44441;BME280;30146;52.268;20.944;2023-08-24T09:56:41;100454.26;;;32.20;31.80
44441;BME280;30146;52.268;20.944;2023-08-24T09:59:17;100453.61;;;32.16;31.90
44441;BME280;30146;52.268;20.944;2023-08-24T10:01:51;100455.16;;;32.07;32.51
44441;BME280;30146;52.268;20.944;2023-08-24T10:04:25;100453.25;;;31.98;32.55
44441;BME280;30146;52.268;20.944;2023-08-24T10:07:06;100456.91;;;31.86;32.62
44441;BME280;30146;52.268;20.944;2023-08-24T10:09:43;100455.04;;;31.70;32.40
44441;BME280;30146;52.268;20.944;2023-08-24T10:12:17;100452.86;;;31.62;32.97
44441;BME280;30146;52.268;20.944;2023-08-24T10:14:56;100449.79;;;31.60;33.24
44441;BME280;30146;52.268;20.944;2023-08-24T10:17:30;100448.88;;;31.59;33.20
44441;BME280;30146;52.268;20.944;2023-08-24T10:20:04;100447.48;;;31.61;32.86
44441;BME280;30146;52.268;20.944;2023-08-24T10:22:39;100445.98;;;31.58;32.50
44441;BME280;30146;52.268;20.944;2023-08-24T10:25:12;100446.23;;;31.48;31.87
44441;BME280;30146;52.268;20.944;2023-08-24T10:27:45;100442.66;;;31.33;31.71
44441;BME280;30146;52.268;20.944;2023-08-24T10:30:20;100440.30;;;31.17;32.36
44441;BME280;30146;52.268;20.944;2023-08-24T10:32:52;100440.30;;;31.15;32.75
44441;BME280;30146;52.268;20.944;2023-08-24T10:35:25;100439.84;;;31.17;32.67
44441;BME280;30146;52.268;20.944;2023-08-24T10:37:59;100438.73;;;31.17;32.57
44441;BME280;30146;52.268;20.944;2023-08-24T10:40:36;100438.83;;;31.18;33.04
44441;BME280;30146;52.268;20.944;2023-08-24T10:43:09;100435.59;;;31.22;33.56
44441;BME280;30146;52.268;20.944;2023-08-24T10:46:00;100437.47;;;31.26;33.15
44441;BME280;30146;52.268;20.944;2023-08-24T10:49:00;100430.13;;;31.33;33.49
44441;BME280;30146;52.268;20.944;2023-08-24T10:51:44;100428.64;;;31.38;33.63
44441;BME280;30146;52.268;20.944;2023-08-24T10:54:18;100426.08;;;31.42;33.81
44441;BME280;30146;52.268;20.944;2023-08-24T10:57:06;100426.83;;;31.52;33.60
44441;BME280;30146;52.268;20.944;2023-08-24T10:59:39;100428.89;;;31.57;33.50
44441;BME280;30146;52.268;20.944;2023-08-24T11:02:24;100432.67;;;31.64;33.69
44441;BME280;30146;52.268;20.944;2023-08-24T11:05:14;100424.63;;;31.69;34.02
44441;BME280;30146;52.268;20.944;2023-08-24T11:07:53;100416.80;;;31.71;33.57
44441;BME280;30146;52.268;20.944;2023-08-24T11:10:28;100412.14;;;31.68;33.56
44441;BME280;30146;52.268;20.944;2023-08-24T11:13:16;100413.14;;;31.63;33.48
44441;BME280;30146;52.268;20.944;2023-08-24T11:15:50;100413.47;;;31.56;33.87
44441;BME280;30146;52.268;20.944;2023-08-24T11:18:28;100412.66;;;31.48;33.37
44441;BME280;30146;52.268;20.944;2023-08-24T11:21:02;100414.66;;;31.40;33.09
44441;BME280;30146;52.268;20.944;2023-08-24T11:23:34;100410.70;;;31.28;32.85
44441;BME280;30146;52.268;20.944;2023-08-24T11:26:07;100405.51;;;31.17;32.91
44441;BME280;30146;52.268;20.944;2023-08-24T11:28:38;100401.70;;;31.11;33.60
44441;BME280;30146;52.268;20.944;2023-08-24T11:31:10;100404.81;;;31.10;33.56
44441;BME280;30146;52.268;20.944;2023-08-24T11:33:42;100404.85;;;31.12;34.19
44441;BME280;30146;52.268;20.944;2023-08-24T11:36:14;100406.56;;;31.14;33.57
44441;BME280;30146;52.268;20.944;2023-08-24T11:38:45;100403.63;;;31.13;33.55
44441;BME280;30146;52.268;20.944;2023-08-24T11:41:18;100398.94;;;31.03;33.09
44441;BME280;30146;52.268;20.944;2023-08-24T11:44:00;100393.77;;;30.92;33.45
44441;BME280;30146;52.268;20.944;2023-08-24T11:46:48;100393.41;;;30.81;33.59
44441;BME280;30146;52.268;20.944;2023-08-24T11:49:19;100394.73;;;30.72;34.39
44441;BME280;30146;52.268;20.944;2023-08-24T11:51:51;100386.14;;;30.64;34.64
44441;BME280;30146;52.268;20.944;2023-08-24T11:54:23;100389.42;;;30.58;34.13
44441;BME280;30146;52.268;20.944;2023-08-24T11:56:55;100384.09;;;30.54;34.29
44441;BME280;30146;52.268;20.944;2023-08-24T11:59:26;100383.49;;;30.57;34.86
44441;BME280;30146;52.268;20.944;2023-08-24T12:01:59;100382.90;;;30.59;34.52
44441;BME280;30146;52.268;20.944;2023-08-24T12:04:39;100382.15;;;30.63;34.48
44441;BME280;30146;52.268;20.944;2023-08-24T12:07:14;100381.54;;;30.68;34.53
44441;BME280;30146;52.268;20.944;2023-08-24T12:09:47;100381.74;;;30.71;34.64
44441;BME280;30146;52.268;20.944;2023-08-24T12:12:22;100379.67;;;30.73;34.35
44441;BME280;30146;52.268;20.944;2023-08-24T12:14:54;100375.02;;;30.68;34.33
44441;BME280;30146;52.268;20.944;2023-08-24T12:17:27;100373.14;;;30.62;34.29
44441;BME280;30146;52.268;20.944;2023-08-24T12:20:00;100371.70;;;30.55;34.48
44441;BME280;30146;52.268;20.944;2023-08-24T12:22:38;100365.75;;;30.44;34.03
44441;BME280;30146;52.268;20.944;2023-08-24T12:25:10;100362.67;;;30.36;34.91
44441;BME280;30146;52.268;20.944;2023-08-24T12:27:41;100362.23;;;30.27;34.88
44441;BME280;30146;52.268;20.944;2023-08-24T12:30:13;100361.55;;;30.17;35.20
44441;BME280;30146;52.268;20.944;2023-08-24T12:32:48;100361.69;;;30.06;35.17
44441;BME280;30146;52.268;20.944;2023-08-24T12:35:22;100354.70;;;29.95;35.54
44441;BME280;30146;52.268;20.944;2023-08-24T12:37:53;100354.54;;;29.87;35.44
44441;BME280;30146;52.268;20.944;2023-08-24T12:40:25;100354.55;;;29.80;35.62
44441;BME280;30146;52.268;20.944;2023-08-24T12:43:00;100351.77;;;29.71;35.19
44441;BME280;30146;52.268;20.944;2023-08-24T12:45:32;100354.98;;;29.61;35.11
44441;BME280;30146;52.268;20.944;2023-08-24T12:48:04;100355.19;;;29.54;35.27
44441;BME280;30146;52.268;20.944;2023-08-24T12:50:38;100354.16;;;29.46;35.03
44441;BME280;30146;52.268;20.944;2023-08-24T12:53:11;100352.75;;;29.36;35.07
44441;BME280;30146;52.268;20.944;2023-08-24T12:55:43;100354.30;;;29.25;35.20
44441;BME280;30146;52.268;20.944;2023-08-24T12:58:16;100357.49;;;29.16;35.54
44441;BME280;30146;52.268;20.944;2023-08-24T13:00:48;100351.52;;;29.10;35.74
44441;BME280;30146;52.268;20.944;2023-08-24T13:03:19;100353.33;;;29.07;35.95
44441;BME280;30146;52.268;20.944;2023-08-24T13:05:50;100350.14;;;29.06;36.39
44441;BME280;30146;52.268;20.944;2023-08-24T13:08:21;100349.12;;;29.03;36.50
44441;BME280;30146;52.268;20.944;2023-08-24T13:10:53;100345.65;;;29.00;36.49
44441;BME280;30146;52.268;20.944;2023-08-24T13:13:25;100338.38;;;28.97;36.26